AAL1702 KCLT-KMCO
Flight info
| Callsign | AAL1702 |
|---|---|
| Flight time | 1h 14m |
| Altitude | 36000 |
| Route | ICONS5 NOOKS WURFL Q83 ROYCO Q85 LPERD SNFLD3 |
| Aircraft | B38M/M-SDE2E3GIJ4RWZ/LB1 |
Departure
| Time | 2026-04-21 19:34 |
|---|---|
| Airport | Charlotte Douglas International Airport (KCLT) |
Arrival
| Time | 2026-04-21 20:49 |
|---|---|
| Airport | Orlando International Airport (KMCO) |
| Time | Latitude | Longitude | Altitude | Speed | Heading |
|---|---|---|---|---|---|
| 2026-04-21 19:13 | 35.21892 | -80.94302 | 735 ft | 0 kts | 76° |
| 2026-04-21 19:21 | 35.21890 | -80.94310 | 735 ft | 4 kts | 79° |
| 2026-04-21 19:21 | 35.21887 | -80.94342 | 733 ft | 4 kts | 86° |
| 2026-04-21 19:21 | 35.21891 | -80.94373 | 735 ft | 4 kts | 120° |
| 2026-04-21 19:21 | 35.21908 | -80.94392 | 735 ft | 4 kts | 168° |
| 2026-04-21 19:22 | 35.21915 | -80.94393 | 735 ft | 1 kts | 175° |
| 2026-04-21 19:27 | 35.21912 | -80.94393 | 735 ft | 2 kts | 175° |
| 2026-04-21 19:27 | 35.21866 | -80.94389 | 735 ft | 10 kts | 175° |
| 2026-04-21 19:27 | 35.21785 | -80.94381 | 735 ft | 13 kts | 175° |
| 2026-04-21 19:28 | 35.21697 | -80.94373 | 735 ft | 11 kts | 175° |
| 2026-04-21 19:28 | 35.21639 | -80.94318 | 734 ft | 13 kts | 102° |
| 2026-04-21 19:28 | 35.21634 | -80.94202 | 734 ft | 15 kts | 77° |
| 2026-04-21 19:28 | 35.21689 | -80.94105 | 733 ft | 13 kts | 47° |
| 2026-04-21 19:29 | 35.21708 | -80.94005 | 734 ft | 14 kts | 121° |
| 2026-04-21 19:29 | 35.21653 | -80.93939 | 735 ft | 11 kts | 138° |
| 2026-04-21 19:29 | 35.21592 | -80.93871 | 734 ft | 13 kts | 138° |
| 2026-04-21 19:29 | 35.21514 | -80.93788 | 735 ft | 16 kts | 139° |
| 2026-04-21 19:30 | 35.21423 | -80.93691 | 735 ft | 18 kts | 140° |
| 2026-04-21 19:30 | 35.21298 | -80.93651 | 736 ft | 20 kts | 178° |
| 2026-04-21 19:30 | 35.21161 | -80.93638 | 735 ft | 21 kts | 175° |
| 2026-04-21 19:30 | 35.21007 | -80.93626 | 735 ft | 23 kts | 176° |
| 2026-04-21 19:31 | 35.20842 | -80.93612 | 735 ft | 25 kts | 176° |
| 2026-04-21 19:31 | 35.20661 | -80.93596 | 735 ft | 27 kts | 175° |
| 2026-04-21 19:31 | 35.20469 | -80.93581 | 735 ft | 29 kts | 176° |
| 2026-04-21 19:31 | 35.20294 | -80.93566 | 735 ft | 22 kts | 175° |
| 2026-04-21 19:32 | 35.20172 | -80.93554 | 734 ft | 12 kts | 175° |
| 2026-04-21 19:32 | 35.20114 | -80.93536 | 734 ft | 9 kts | 144° |
| 2026-04-21 19:32 | 35.20104 | -80.93484 | 736 ft | 6 kts | 91° |
| 2026-04-21 19:32 | 35.20114 | -80.93434 | 735 ft | 7 kts | 52° |
| 2026-04-21 19:33 | 35.20143 | -80.93419 | 736 ft | 7 kts | 3° |
| 2026-04-21 19:33 | 35.20175 | -80.93421 | 736 ft | 22 kts | 356° |
| 2026-04-21 19:33 | 35.20610 | -80.93459 | 738 ft | 101 kts | 356° |
| 2026-04-21 19:33 | 35.21540 | -80.93538 | 741 ft | 163 kts | 356° |
| 2026-04-21 19:34 | 35.22751 | -80.93675 | 1224 ft | 181 kts | 353° |
| 2026-04-21 19:34 | 35.24020 | -80.93761 | 2075 ft | 185 kts | 4° |
| 2026-04-21 19:34 | 35.25302 | -80.93441 | 2755 ft | 196 kts | 16° |
| 2026-04-21 19:34 | 35.26714 | -80.92920 | 3097 ft | 227 kts | 17° |
| 2026-04-21 19:35 | 35.28308 | -80.92320 | 3616 ft | 248 kts | 17° |
| 2026-04-21 19:35 | 35.31776 | -80.91014 | 5293 ft | 266 kts | 17° |
| 2026-04-21 19:35 | 35.33436 | -80.90016 | 6239 ft | 270 kts | 39° |
| 2026-04-21 19:36 | 35.34592 | -80.88198 | 7137 ft | 277 kts | 63° |
| 2026-04-21 19:36 | 35.35056 | -80.85889 | 7474 ft | 283 kts | 88° |
| 2026-04-21 19:36 | 35.34599 | -80.83564 | 7575 ft | 286 kts | 119° |
| 2026-04-21 19:36 | 35.33260 | -80.81781 | 7728 ft | 288 kts | 146° |
| 2026-04-21 19:37 | 35.31406 | -80.80879 | 7852 ft | 290 kts | 174° |
| 2026-04-21 19:37 | 35.29421 | -80.81104 | 7950 ft | 288 kts | 198° |
| 2026-04-21 19:37 | 35.27486 | -80.81802 | 7991 ft | 291 kts | 197° |
| 2026-04-21 19:37 | 35.25516 | -80.82446 | 8192 ft | 295 kts | 196° |
| 2026-04-21 19:38 | 35.23535 | -80.83076 | 9126 ft | 294 kts | 197° |
| 2026-04-21 19:38 | 35.21539 | -80.83717 | 9950 ft | 301 kts | 196° |
| 2026-04-21 19:38 | 35.20181 | -80.84140 | 10399 ft | 309 kts | 196° |
| 2026-04-21 19:38 | 35.17292 | -80.85002 | 10965 ft | 336 kts | 195° |
| 2026-04-21 19:39 | 35.14972 | -80.85685 | 11512 ft | 350 kts | 196° |
| 2026-04-21 19:39 | 35.12572 | -80.86400 | 12210 ft | 357 kts | 196° |
| 2026-04-21 19:39 | 35.10146 | -80.87142 | 13034 ft | 362 kts | 197° |
| 2026-04-21 19:39 | 35.07694 | -80.87903 | 13844 ft | 367 kts | 197° |
| 2026-04-21 19:40 | 35.05198 | -80.88680 | 14647 ft | 372 kts | 197° |
| 2026-04-21 19:40 | 35.02676 | -80.89469 | 15468 ft | 376 kts | 198° |
| 2026-04-21 19:40 | 35.00124 | -80.90268 | 16244 ft | 382 kts | 198° |
| 2026-04-21 19:40 | 34.97531 | -80.91078 | 16997 ft | 386 kts | 198° |
| 2026-04-21 19:41 | 34.94914 | -80.91900 | 17697 ft | 392 kts | 199° |
| 2026-04-21 19:41 | 34.92255 | -80.92732 | 18397 ft | 396 kts | 199° |
| 2026-04-21 19:41 | 34.89574 | -80.93572 | 19068 ft | 401 kts | 199° |
| 2026-04-21 19:41 | 34.86857 | -80.94422 | 19749 ft | 404 kts | 199° |
| 2026-04-21 19:42 | 34.84121 | -80.95279 | 20396 ft | 409 kts | 199° |
| 2026-04-21 19:42 | 34.81358 | -80.96144 | 21018 ft | 412 kts | 199° |
| 2026-04-21 19:42 | 34.78497 | -80.96727 | 21601 ft | 423 kts | 185° |
| 2026-04-21 19:42 | 34.75552 | -80.96806 | 22244 ft | 425 kts | 186° |
| 2026-04-21 19:43 | 34.72581 | -80.96918 | 22783 ft | 430 kts | 186° |
| 2026-04-21 19:43 | 34.69576 | -80.97019 | 23342 ft | 434 kts | 185° |
| 2026-04-21 19:43 | 34.66552 | -80.97116 | 23881 ft | 437 kts | 186° |
| 2026-04-21 19:43 | 34.63489 | -80.97213 | 24400 ft | 441 kts | 186° |
| 2026-04-21 19:44 | 34.60427 | -80.97467 | 24908 ft | 442 kts | 189° |
| 2026-04-21 19:44 | 34.57350 | -80.97776 | 25443 ft | 445 kts | 189° |
| 2026-04-21 19:44 | 34.54250 | -80.98072 | 25924 ft | 448 kts | 189° |
| 2026-04-21 19:44 | 34.51136 | -80.98362 | 26410 ft | 451 kts | 189° |
| 2026-04-21 19:45 | 34.49055 | -80.98555 | 26715 ft | 453 kts | 189° |
| 2026-04-21 19:45 | 34.44839 | -80.98944 | 27327 ft | 457 kts | 189° |
| 2026-04-21 19:45 | 34.42734 | -80.99138 | 27632 ft | 458 kts | 189° |
| 2026-04-21 19:45 | 34.39545 | -80.99432 | 28064 ft | 461 kts | 189° |
| 2026-04-21 19:46 | 34.36338 | -80.99728 | 28493 ft | 463 kts | 189° |
| 2026-04-21 19:46 | 34.33120 | -81.00024 | 28893 ft | 466 kts | 190° |
| 2026-04-21 19:46 | 34.29881 | -81.00321 | 29289 ft | 468 kts | 190° |
| 2026-04-21 19:46 | 34.26616 | -81.00621 | 29675 ft | 471 kts | 190° |
| 2026-04-21 19:47 | 34.23337 | -81.00922 | 30052 ft | 473 kts | 190° |
| 2026-04-21 19:47 | 34.20048 | -81.01223 | 30427 ft | 476 kts | 190° |
| 2026-04-21 19:47 | 34.16738 | -81.01527 | 30799 ft | 478 kts | 190° |
| 2026-04-21 19:47 | 34.13416 | -81.01831 | 31149 ft | 480 kts | 190° |
| 2026-04-21 19:48 | 34.10070 | -81.02137 | 31480 ft | 483 kts | 190° |
| 2026-04-21 19:48 | 34.06717 | -81.02444 | 31836 ft | 485 kts | 190° |
| 2026-04-21 19:48 | 34.03344 | -81.02753 | 32179 ft | 487 kts | 190° |
| 2026-04-21 19:48 | 33.99962 | -81.03061 | 32525 ft | 488 kts | 190° |
| 2026-04-21 19:49 | 33.96545 | -81.03120 | 32851 ft | 495 kts | 183° |
| 2026-04-21 19:49 | 33.93100 | -81.03030 | 33275 ft | 494 kts | 185° |
| 2026-04-21 19:49 | 33.89672 | -81.02978 | 33720 ft | 492 kts | 185° |
| 2026-04-21 19:49 | 33.86253 | -81.02944 | 34169 ft | 491 kts | 185° |
| 2026-04-21 19:50 | 33.82844 | -81.02916 | 34614 ft | 489 kts | 185° |
| 2026-04-21 19:50 | 33.79440 | -81.02888 | 34986 ft | 489 kts | 186° |
| 2026-04-21 19:50 | 33.76045 | -81.02860 | 35368 ft | 488 kts | 185° |
| 2026-04-21 19:50 | 33.72643 | -81.02834 | 35727 ft | 488 kts | 186° |
| 2026-04-21 19:51 | 33.69247 | -81.02807 | 36062 ft | 488 kts | 186° |
| 2026-04-21 19:51 | 33.65858 | -81.02780 | 36342 ft | 489 kts | 186° |
| 2026-04-21 19:51 | 33.62451 | -81.02753 | 36407 ft | 489 kts | 186° |
| 2026-04-21 19:52 | 33.55716 | -81.02699 | 36384 ft | 486 kts | 186° |
| 2026-04-21 19:52 | 33.48948 | -81.02645 | 36378 ft | 487 kts | 186° |
| 2026-04-21 19:53 | 33.42174 | -81.02591 | 36378 ft | 487 kts | 186° |
| 2026-04-21 19:53 | 33.35407 | -81.02538 | 36366 ft | 486 kts | 186° |
| 2026-04-21 19:54 | 33.28643 | -81.02485 | 36369 ft | 486 kts | 186° |
| 2026-04-21 19:54 | 33.21874 | -81.02432 | 36359 ft | 486 kts | 186° |
| 2026-04-21 19:55 | 33.15104 | -81.02379 | 36349 ft | 486 kts | 186° |
| 2026-04-21 19:55 | 33.08341 | -81.02325 | 36336 ft | 485 kts | 186° |
| 2026-04-21 19:56 | 33.01587 | -81.02272 | 36338 ft | 486 kts | 186° |
| 2026-04-21 19:56 | 32.94829 | -81.02219 | 36336 ft | 486 kts | 186° |
| 2026-04-21 19:57 | 32.88066 | -81.02166 | 36339 ft | 486 kts | 186° |
| 2026-04-21 19:57 | 32.81298 | -81.02113 | 36334 ft | 486 kts | 186° |
| 2026-04-21 19:58 | 32.74540 | -81.02061 | 36325 ft | 486 kts | 186° |
| 2026-04-21 19:58 | 32.67780 | -81.02008 | 36327 ft | 485 kts | 186° |
| 2026-04-21 19:59 | 32.61076 | -81.01956 | 36320 ft | 485 kts | 186° |
| 2026-04-21 19:59 | 32.54331 | -81.01905 | 36307 ft | 484 kts | 186° |
| 2026-04-21 20:00 | 32.47598 | -81.02019 | 36307 ft | 484 kts | 187° |
| 2026-04-21 20:00 | 32.40868 | -81.02127 | 36307 ft | 484 kts | 187° |
| 2026-04-21 20:01 | 32.34134 | -81.02233 | 36320 ft | 484 kts | 187° |
| 2026-04-21 20:01 | 32.27408 | -81.02344 | 36326 ft | 483 kts | 187° |
| 2026-04-21 20:02 | 32.20674 | -81.02464 | 36329 ft | 484 kts | 187° |
| 2026-04-21 20:02 | 32.13948 | -81.02583 | 36330 ft | 484 kts | 187° |
| 2026-04-21 20:03 | 32.07215 | -81.02702 | 36329 ft | 484 kts | 187° |
| 2026-04-21 20:03 | 32.00486 | -81.02825 | 36310 ft | 483 kts | 187° |
| 2026-04-21 20:04 | 31.93767 | -81.03012 | 36303 ft | 483 kts | 187° |
| 2026-04-21 20:04 | 31.87049 | -81.03194 | 36313 ft | 483 kts | 187° |
| 2026-04-21 20:05 | 31.80324 | -81.03375 | 36316 ft | 483 kts | 187° |
| 2026-04-21 20:05 | 31.73606 | -81.03554 | 36312 ft | 483 kts | 187° |
| 2026-04-21 20:06 | 31.66881 | -81.03734 | 36312 ft | 483 kts | 187° |
| 2026-04-21 20:06 | 31.60187 | -81.04088 | 36299 ft | 474 kts | 198° |
| 2026-04-21 20:06 | 31.57116 | -81.05223 | 36324 ft | 457 kts | 212° |
| 2026-04-21 20:07 | 31.54239 | -81.06825 | 36312 ft | 458 kts | 213° |
| 2026-04-21 20:07 | 31.48555 | -81.10166 | 36323 ft | 457 kts | 214° |
| 2026-04-21 20:08 | 31.42908 | -81.13594 | 36314 ft | 457 kts | 214° |
| 2026-04-21 20:08 | 31.37268 | -81.17012 | 36323 ft | 457 kts | 214° |
| 2026-04-21 20:09 | 31.31596 | -81.20384 | 36309 ft | 457 kts | 214° |
| 2026-04-21 20:09 | 31.25922 | -81.23760 | 36317 ft | 457 kts | 214° |
| 2026-04-21 20:10 | 31.20220 | -81.27078 | 36300 ft | 462 kts | 207° |
| 2026-04-21 20:10 | 31.17112 | -81.28000 | 36300 ft | 475 kts | 192° |
| 2026-04-21 20:10 | 31.13741 | -81.28140 | 36313 ft | 482 kts | 187° |
| 2026-04-21 20:11 | 31.07064 | -81.28218 | 36319 ft | 484 kts | 186° |
| 2026-04-21 20:11 | 31.00329 | -81.28216 | 36309 ft | 484 kts | 186° |
| 2026-04-21 20:12 | 30.93589 | -81.28200 | 36314 ft | 484 kts | 186° |
| 2026-04-21 20:12 | 30.86854 | -81.28183 | 36306 ft | 484 kts | 186° |
| 2026-04-21 20:13 | 30.80109 | -81.28166 | 36318 ft | 484 kts | 186° |
| 2026-04-21 20:13 | 30.73370 | -81.28149 | 36317 ft | 484 kts | 186° |
| 2026-04-21 20:14 | 30.66633 | -81.28132 | 36318 ft | 484 kts | 186° |
| 2026-04-21 20:14 | 30.59881 | -81.28031 | 36321 ft | 488 kts | 181° |
| 2026-04-21 20:15 | 30.53107 | -81.27467 | 36321 ft | 488 kts | 182° |
| 2026-04-21 20:15 | 30.46324 | -81.26960 | 36307 ft | 488 kts | 182° |
| 2026-04-21 20:16 | 30.39534 | -81.26459 | 36316 ft | 489 kts | 182° |
| 2026-04-21 20:16 | 30.32749 | -81.25959 | 36322 ft | 488 kts | 182° |
| 2026-04-21 20:17 | 30.25966 | -81.25460 | 36309 ft | 489 kts | 182° |
| 2026-04-21 20:17 | 30.19172 | -81.24961 | 36321 ft | 489 kts | 182° |
| 2026-04-21 20:18 | 30.13529 | -81.24547 | 36321 ft | 489 kts | 182° |
| 2026-04-21 20:18 | 30.05570 | -81.23965 | 36322 ft | 490 kts | 182° |
| 2026-04-21 20:19 | 29.98753 | -81.23466 | 36319 ft | 490 kts | 182° |
| 2026-04-21 20:19 | 29.91961 | -81.22970 | 36321 ft | 488 kts | 182° |
| 2026-04-21 20:20 | 29.85179 | -81.22475 | 36326 ft | 488 kts | 182° |
| 2026-04-21 20:20 | 29.78401 | -81.21981 | 36307 ft | 488 kts | 182° |
| 2026-04-21 20:21 | 29.71627 | -81.21483 | 36307 ft | 488 kts | 182° |
| 2026-04-21 20:21 | 29.64856 | -81.20900 | 36316 ft | 488 kts | 182° |
| 2026-04-21 20:22 | 29.58074 | -81.20321 | 36317 ft | 488 kts | 182° |
| 2026-04-21 20:22 | 29.47961 | -81.19460 | 36307 ft | 488 kts | 182° |
| 2026-04-21 20:23 | 29.41193 | -81.18885 | 36317 ft | 487 kts | 182° |
| 2026-04-21 20:23 | 29.34424 | -81.18311 | 36311 ft | 488 kts | 182° |
| 2026-04-21 20:24 | 29.27662 | -81.17728 | 36301 ft | 488 kts | 182° |
| 2026-04-21 20:24 | 29.20889 | -81.17125 | 36299 ft | 489 kts | 180° |
| 2026-04-21 20:25 | 29.17548 | -81.16291 | 36212 ft | 494 kts | 166° |
| 2026-04-21 20:25 | 29.14320 | -81.14948 | 35508 ft | 494 kts | 165° |
| 2026-04-21 20:25 | 29.11106 | -81.13586 | 34873 ft | 488 kts | 164° |
| 2026-04-21 20:25 | 29.07944 | -81.12227 | 34090 ft | 484 kts | 165° |
| 2026-04-21 20:26 | 29.04774 | -81.10995 | 33360 ft | 478 kts | 165° |
| 2026-04-21 20:26 | 29.01638 | -81.09788 | 32642 ft | 473 kts | 165° |
| 2026-04-21 20:26 | 28.98537 | -81.08599 | 31967 ft | 467 kts | 167° |
| 2026-04-21 20:26 | 28.95403 | -81.07930 | 31297 ft | 452 kts | 180° |
| 2026-04-21 20:27 | 28.92294 | -81.07575 | 30676 ft | 447 kts | 178° |
| 2026-04-21 20:27 | 28.89228 | -81.07346 | 29977 ft | 435 kts | 190° |
| 2026-04-21 20:27 | 28.86340 | -81.08023 | 29370 ft | 416 kts | 205° |
| 2026-04-21 20:27 | 28.83605 | -81.09084 | 28619 ft | 414 kts | 205° |
| 2026-04-21 20:28 | 28.80902 | -81.10153 | 27980 ft | 409 kts | 205° |
| 2026-04-21 20:28 | 28.78235 | -81.11232 | 27337 ft | 404 kts | 206° |
| 2026-04-21 20:28 | 28.75603 | -81.12312 | 26685 ft | 401 kts | 206° |
| 2026-04-21 20:28 | 28.72995 | -81.13392 | 26083 ft | 396 kts | 206° |
| 2026-04-21 20:29 | 28.70408 | -81.14433 | 25435 ft | 395 kts | 201° |
| 2026-04-21 20:29 | 28.67722 | -81.15115 | 24831 ft | 393 kts | 198° |
| 2026-04-21 20:29 | 28.65067 | -81.15793 | 24192 ft | 390 kts | 198° |
| 2026-04-21 20:29 | 28.62439 | -81.16482 | 23604 ft | 385 kts | 198° |
| 2026-04-21 20:30 | 28.59869 | -81.17165 | 23004 ft | 382 kts | 198° |
| 2026-04-21 20:30 | 28.57291 | -81.17854 | 22418 ft | 378 kts | 198° |
| 2026-04-21 20:30 | 28.54734 | -81.18525 | 21794 ft | 376 kts | 195° |
| 2026-04-21 20:30 | 28.52111 | -81.18697 | 21203 ft | 378 kts | 183° |
| 2026-04-21 20:31 | 28.49495 | -81.18683 | 20582 ft | 375 kts | 184° |
| 2026-04-21 20:31 | 28.46893 | -81.18693 | 20018 ft | 371 kts | 184° |
| 2026-04-21 20:31 | 28.44327 | -81.18711 | 19419 ft | 368 kts | 184° |
| 2026-04-21 20:31 | 28.41772 | -81.18729 | 18847 ft | 365 kts | 184° |
| 2026-04-21 20:32 | 28.40098 | -81.18741 | 18469 ft | 363 kts | 183° |
| 2026-04-21 20:32 | 28.37589 | -81.18760 | 17902 ft | 359 kts | 183° |
| 2026-04-21 20:32 | 28.35101 | -81.18779 | 17321 ft | 356 kts | 183° |
| 2026-04-21 20:32 | 28.32634 | -81.18798 | 16756 ft | 353 kts | 182° |
| 2026-04-21 20:33 | 28.30185 | -81.18804 | 16192 ft | 350 kts | 181° |
| 2026-04-21 20:33 | 28.27762 | -81.18762 | 15640 ft | 347 kts | 181° |
| 2026-04-21 20:33 | 28.25349 | -81.18716 | 15085 ft | 345 kts | 180° |
| 2026-04-21 20:33 | 28.22961 | -81.18672 | 14532 ft | 342 kts | 180° |
| 2026-04-21 20:34 | 28.20590 | -81.18627 | 13990 ft | 339 kts | 180° |
| 2026-04-21 20:34 | 28.18245 | -81.18583 | 13431 ft | 336 kts | 180° |
| 2026-04-21 20:34 | 28.15912 | -81.18539 | 12902 ft | 333 kts | 180° |
| 2026-04-21 20:34 | 28.13596 | -81.18496 | 12325 ft | 332 kts | 180° |
| 2026-04-21 20:35 | 28.11300 | -81.18454 | 11815 ft | 328 kts | 179° |
| 2026-04-21 20:35 | 28.09026 | -81.18412 | 11269 ft | 326 kts | 179° |
| 2026-04-21 20:35 | 28.06774 | -81.18370 | 10736 ft | 323 kts | 178° |
| 2026-04-21 20:35 | 28.04540 | -81.18318 | 10253 ft | 319 kts | 178° |
| 2026-04-21 20:36 | 28.02332 | -81.18281 | 9722 ft | 316 kts | 178° |
| 2026-04-21 20:36 | 28.00148 | -81.18263 | 9231 ft | 313 kts | 178° |
| 2026-04-21 20:36 | 27.97983 | -81.18267 | 8749 ft | 310 kts | 178° |
| 2026-04-21 20:36 | 27.95840 | -81.18287 | 8248 ft | 306 kts | 178° |
| 2026-04-21 20:37 | 27.93724 | -81.18315 | 7717 ft | 303 kts | 178° |
| 2026-04-21 20:37 | 27.91616 | -81.18350 | 7209 ft | 300 kts | 178° |
| 2026-04-21 20:37 | 27.89568 | -81.18758 | 6685 ft | 303 kts | 200° |
| 2026-04-21 20:37 | 27.87830 | -81.20077 | 6172 ft | 304 kts | 225° |
| 2026-04-21 20:38 | 27.86716 | -81.22098 | 5631 ft | 305 kts | 251° |
| 2026-04-21 20:38 | 27.86389 | -81.24443 | 5127 ft | 302 kts | 270° |
| 2026-04-21 20:38 | 27.86403 | -81.26817 | 4597 ft | 302 kts | 272° |
| 2026-04-21 20:38 | 27.86608 | -81.29132 | 4282 ft | 290 kts | 289° |
| 2026-04-21 20:39 | 27.87548 | -81.31039 | 4085 ft | 270 kts | 317° |
| 2026-04-21 20:39 | 27.89039 | -81.32162 | 3932 ft | 252 kts | 346° |
| 2026-04-21 20:39 | 27.90758 | -81.32489 | 3902 ft | 252 kts | 359° |
| 2026-04-21 20:39 | 27.92500 | -81.32630 | 3776 ft | 250 kts | 0° |
| 2026-04-21 20:40 | 27.94238 | -81.32760 | 3448 ft | 250 kts | 0° |
| 2026-04-21 20:40 | 27.95975 | -81.32894 | 3145 ft | 250 kts | 0° |
| 2026-04-21 20:40 | 27.97691 | -81.33033 | 3021 ft | 247 kts | 0° |
| 2026-04-21 20:40 | 27.99420 | -81.33166 | 2988 ft | 249 kts | 0° |
| 2026-04-21 20:41 | 28.01152 | -81.33302 | 2977 ft | 250 kts | 0° |
| 2026-04-21 20:41 | 28.02889 | -81.33434 | 2981 ft | 250 kts | 0° |
| 2026-04-21 20:41 | 28.04606 | -81.33567 | 2996 ft | 251 kts | 0° |
| 2026-04-21 20:41 | 28.06347 | -81.33642 | 2992 ft | 250 kts | 4° |
| 2026-04-21 20:42 | 28.08066 | -81.33534 | 2987 ft | 245 kts | 15° |
| 2026-04-21 20:42 | 28.09737 | -81.33135 | 3004 ft | 246 kts | 14° |
| 2026-04-21 20:42 | 28.11431 | -81.32828 | 2983 ft | 247 kts | 11° |
| 2026-04-21 20:42 | 28.13108 | -81.32607 | 2992 ft | 236 kts | 10° |
| 2026-04-21 20:43 | 28.14667 | -81.32286 | 3005 ft | 219 kts | 15° |
| 2026-04-21 20:43 | 28.16147 | -81.32059 | 3008 ft | 213 kts | 9° |
| 2026-04-21 20:43 | 28.17621 | -81.31978 | 2954 ft | 212 kts | 5° |
| 2026-04-21 20:43 | 28.19094 | -81.31962 | 3003 ft | 212 kts | 4° |
| 2026-04-21 20:44 | 28.20569 | -81.31975 | 2994 ft | 212 kts | 4° |
| 2026-04-21 20:44 | 28.22041 | -81.31987 | 3000 ft | 212 kts | 4° |
| 2026-04-21 20:44 | 28.23517 | -81.32002 | 2993 ft | 212 kts | 4° |
| 2026-04-21 20:44 | 28.24967 | -81.32018 | 3009 ft | 202 kts | 4° |
| 2026-04-21 20:45 | 28.26335 | -81.32033 | 2952 ft | 195 kts | 4° |
| 2026-04-21 20:45 | 28.27694 | -81.32047 | 2731 ft | 194 kts | 4° |
| 2026-04-21 20:45 | 28.29022 | -81.32064 | 2518 ft | 191 kts | 4° |
| 2026-04-21 20:45 | 28.30342 | -81.32075 | 2273 ft | 188 kts | 4° |
| 2026-04-21 20:46 | 28.31650 | -81.32087 | 2030 ft | 188 kts | 4° |
| 2026-04-21 20:46 | 28.32961 | -81.32105 | 1783 ft | 188 kts | 4° |
| 2026-04-21 20:46 | 28.34258 | -81.32118 | 1568 ft | 184 kts | 4° |
| 2026-04-21 20:46 | 28.35521 | -81.32132 | 1347 ft | 174 kts | 4° |
| 2026-04-21 20:47 | 28.36668 | -81.32143 | 1094 ft | 159 kts | 4° |
| 2026-04-21 20:47 | 28.37720 | -81.32156 | 870 ft | 143 kts | 4° |
| 2026-04-21 20:47 | 28.38683 | -81.32167 | 746 ft | 137 kts | 5° |
| 2026-04-21 20:47 | 28.39635 | -81.32175 | 517 ft | 137 kts | 2° |
| 2026-04-21 20:48 | 28.40589 | -81.32203 | 384 ft | 138 kts | 6° |
| 2026-04-21 20:48 | 28.41556 | -81.32195 | 198 ft | 138 kts | 4° |
| 2026-04-21 20:48 | 28.42476 | -81.32200 | 113 ft | 119 kts | 3° |
| 2026-04-21 20:48 | 28.43078 | -81.32209 | 103 ft | 56 kts | 359° |
| 2026-04-21 20:49 | 28.43202 | -81.32201 | 103 ft | 6 kts | 53° |
| 2026-04-21 20:49 | 28.43188 | -81.32149 | 102 ft | 9 kts | 141° |
| 2026-04-21 20:49 | 28.43149 | -81.32084 | 102 ft | 12 kts | 108° |
| 2026-04-21 20:49 | 28.43100 | -81.32007 | 103 ft | 13 kts | 132° |
| 2026-04-21 20:50 | 28.43045 | -81.31920 | 103 ft | 15 kts | 122° |
| 2026-04-21 20:50 | 28.42986 | -81.31811 | 104 ft | 18 kts | 121° |
| 2026-04-21 20:50 | 28.42940 | -81.31697 | 103 ft | 17 kts | 95° |
| 2026-04-21 20:50 | 28.42949 | -81.31601 | 102 ft | 10 kts | 81° |
| 2026-04-21 20:51 | 28.42943 | -81.31549 | 104 ft | 5 kts | 112° |
| 2026-04-21 20:51 | 28.42915 | -81.31545 | 103 ft | 5 kts | 192° |
| 2026-04-21 20:51 | 28.42891 | -81.31551 | 104 ft | 4 kts | 193° |
| 2026-04-21 20:51 | 28.42888 | -81.31552 | 104 ft | 0 kts | 192° |